Time;durP1;ratioP1;P1;durP2;ratioP2;P2;SDS_P1;SDS_P2;PMS_P1;PMS_P2;Temp;Humidity;BMP_temperature;BMP_pressure;BME280_temperature;BME280_humidity;BME280_pressure;Samples;Min_cycle;Max_cycle;Signal;HPM_P1;HPM_P2
2022/11/28 00:00:14;;;;;;;6.43;5.00;;;6.30;99.90;;;;;;7367378;32;20129;-59
2022/11/28 00:04:16;;;;;;;8.38;5.28;;;6.30;99.90;;;;;;7366613;32;20107;-58
2022/11/28 00:08:18;;;;;;;9.45;5.20;;;6.30;99.90;;;;;;7366015;32;20104;-59
2022/11/28 00:12:20;;;;;;;7.82;5.20;;;6.40;99.90;;;;;;7357016;32;20113;-60
2022/11/28 00:16:22;;;;;;;7.90;5.05;;;6.40;99.90;;;;;;7372937;32;20103;-59
2022/11/28 00:20:24;;;;;;;8.63;4.45;;;6.50;99.90;;;;;;7369819;32;20220;-59
2022/11/28 00:24:26;;;;;;;11.57;5.22;;;6.50;99.90;;;;;;7381008;32;20134;-60
2022/11/28 00:28:27;;;;;;;7.93;5.10;;;6.50;99.90;;;;;;7377472;32;20121;-59
2022/11/28 00:32:29;;;;;;;10.23;4.75;;;6.50;99.90;;;;;;7377520;32;20128;-60
2022/11/28 00:36:31;;;;;;;7.30;4.62;;;6.50;99.90;;;;;;7378685;32;20147;-59
2022/11/28 00:40:33;;;;;;;7.05;5.03;;;6.40;99.90;;;;;;7375614;32;20131;-59
2022/11/28 00:44:35;;;;;;;8.07;5.18;;;6.40;99.90;;;;;;7383740;32;20126;-57
2022/11/28 00:48:37;;;;;;;7.57;5.47;;;6.40;99.90;;;;;;7384972;32;20244;-58
2022/11/28 00:52:39;;;;;;;6.40;4.50;;;6.50;99.90;;;;;;7380962;32;20107;-59
2022/11/28 00:56:40;;;;;;;8.02;4.85;;;6.50;99.90;;;;;;7379318;32;20099;-58
2022/11/28 01:00:42;;;;;;;9.20;5.40;;;6.50;99.90;;;;;;7385628;32;20106;-58
2022/11/28 01:04:44;;;;;;;10.23;4.70;;;6.40;99.90;;;;;;7385206;32;20242;-58
2022/11/28 01:08:46;;;;;;;10.68;5.32;;;6.50;99.90;;;;;;7386732;32;20103;-57
2022/11/28 01:12:47;;;;;;;8.73;5.15;;;6.60;99.90;;;;;;7380601;32;20161;-57
2022/11/28 01:16:49;;;;;;;7.55;4.62;;;6.50;99.90;;;;;;7378104;32;20216;-59
2022/11/28 01:20:51;;;;;;;7.40;5.60;;;6.50;99.90;;;;;;7382702;32;20148;-58
2022/11/28 01:24:52;;;;;;;9.70;5.20;;;6.50;99.90;;;;;;7381052;32;20270;-58
2022/11/28 01:28:55;;;;;;;8.13;4.90;;;6.50;99.90;;;;;;7379607;32;20194;-58
2022/11/28 01:32:56;;;;;;;7.57;4.97;;;6.50;99.90;;;;;;7376790;32;20515;-59
2022/11/28 01:36:59;;;;;;;7.87;5.05;;;6.60;99.90;;;;;;7375576;32;20482;-58
2022/11/28 01:41:01;;;;;;;8.60;5.10;;;6.50;99.90;;;;;;7376882;32;20527;-59
2022/11/28 01:45:31;;;;;;;7.65;4.78;;;6.60;99.90;;;;;;7380304;32;20131;-58
2022/11/28 01:49:36;;;;;;;7.78;4.68;;;6.60;99.90;;;;;;7377406;32;20198;-59
2022/11/28 01:53:41;;;;;;;7.47;4.87;;;6.60;99.90;;;;;;7379278;32;20099;-58
2022/11/28 01:57:43;;;;;;;8.32;5.22;;;6.70;99.90;;;;;;7380205;32;20111;-59
2022/11/28 02:01:45;;;;;;;6.97;5.18;;;6.60;99.90;;;;;;7372007;32;20620;-58
2022/11/28 02:05:50;;;;;;;11.70;5.28;;;6.60;99.90;;;;;;7378772;32;20103;-58
2022/11/28 02:09:52;;;;;;;7.22;5.00;;;6.60;99.90;;;;;;7377344;32;20245;-59
2022/11/28 02:14:18;;;;;;;9.88;5.20;;;6.60;99.90;;;;;;7375551;32;20786;-59
2022/11/28 02:18:44;;;;;;;10.23;5.78;;;6.60;99.90;;;;;;7370270;32;20556;-59
2022/11/28 02:22:57;;;;;;;7.78;5.12;;;6.60;99.90;;;;;;7378197;32;20102;-58
2022/11/28 02:27:20;;;;;;;7.65;4.60;;;6.60;99.90;;;;;;7376219;32;20125;-59
2022/11/28 02:31:40;;;;;;;9.32;5.22;;;6.60;99.90;;;;;;7374502;32;20134;-58
2022/11/28 02:36:03;;;;;;;10.15;5.37;;;6.60;99.90;;;;;;7377003;32;20127;-58
2022/11/28 02:40:26;;;;;;;8.57;4.90;;;6.60;99.90;;;;;;7373911;32;20752;-59
2022/11/28 02:44:48;;;;;;;8.30;5.85;;;6.70;99.90;;;;;;7374333;32;20236;-58
2022/11/28 02:49:05;;;;;;;8.07;4.55;;;6.70;99.90;;;;;;7372883;32;20137;-59
2022/11/28 02:53:19;;;;;;;7.20;4.53;;;6.70;99.90;;;;;;7381580;32;20569;-59
2022/11/28 02:57:20;;;;;;;8.00;5.03;;;6.70;99.90;;;;;;7378376;32;20109;-59
2022/11/28 03:01:27;;;;;;;9.65;5.43;;;6.70;99.90;;;;;;7370157;32;20107;-59
2022/11/28 03:05:43;;;;;;;9.98;5.93;;;6.60;99.90;;;;;;7373561;32;20163;-60
2022/11/28 03:10:23;;;;;;;11.63;6.62;;;6.60;99.90;;;;;;7377839;32;20107;-59
2022/11/28 03:14:43;;;;;;;9.75;5.62;;;6.60;99.90;;;;;;7375482;32;20243;-59
2022/11/28 03:19:26;;;;;;;11.57;6.37;;;6.60;99.90;;;;;;7370912;32;20198;-59
2022/11/28 03:23:45;;;;;;;11.52;6.72;;;6.60;99.90;;;;;;7379511;32;20182;-58
2022/11/28 03:27:53;;;;;;;8.88;6.37;;;6.50;99.90;;;;;;7372103;32;20504;-59
2022/11/28 03:32:10;;;;;;;9.13;6.80;;;6.50;99.90;;;;;;7370613;32;20194;-59
2022/11/28 03:36:20;;;;;;;9.35;6.22;;;6.40;99.90;;;;;;7370959;32;20107;-59
2022/11/28 03:40:29;;;;;;;12.57;6.40;;;6.40;99.90;;;;;;7364701;32;20490;-63
2022/11/28 03:44:38;;;;;;;10.38;6.93;;;6.30;99.90;;;;;;7370263;32;20428;-59
2022/11/28 03:48:46;;;;;;;8.85;6.82;;;6.30;99.90;;;;;;7377324;32;20174;-59
2022/11/28 03:52:58;;;;;;;9.65;6.32;;;6.30;99.90;;;;;;7375446;32;20466;-58
2022/11/28 03:57:15;;;;;;;8.43;6.28;;;6.30;99.90;;;;;;7368085;32;20106;-59
2022/11/28 04:01:28;;;;;;;9.98;6.65;;;6.30;99.90;;;;;;7368483;32;20129;-59
2022/11/28 04:05:52;;;;;;;11.25;6.53;;;6.30;99.90;;;;;;7372621;32;20137;-60
2022/11/28 04:10:03;;;;;;;11.10;6.50;;;6.20;99.90;;;;;;7381372;32;20115;-59
2022/11/28 04:14:31;;;;;;;9.05;6.45;;;6.30;99.90;;;;;;7384899;32;21534;-59
2022/11/28 04:18:38;;;;;;;10.75;6.80;;;6.30;99.90;;;;;;7374005;32;20145;-59
2022/11/28 04:22:47;;;;;;;9.43;6.53;;;6.30;99.90;;;;;;7377096;32;20129;-59
2022/11/28 04:26:58;;;;;;;10.15;6.45;;;6.20;99.90;;;;;;7376064;32;20133;-60
2022/11/28 04:31:03;;;;;;;10.40;6.43;;;6.30;99.90;;;;;;7373866;32;20459;-59
2022/11/28 04:35:09;;;;;;;9.93;6.82;;;6.30;99.90;;;;;;7378096;32;20103;-59
2022/11/28 04:39:18;;;;;;;9.05;6.25;;;6.30;99.90;;;;;;7374244;32;20115;-59
2022/11/28 04:43:24;;;;;;;10.15;6.40;;;6.30;99.90;;;;;;7380086;32;20141;-60
2022/11/28 04:47:26;;;;;;;8.83;5.97;;;6.20;99.90;;;;;;7382877;32;20707;-60
2022/11/28 04:52:11;;;;;;;9.05;6.55;;;6.20;99.90;;;;;;7374819;32;20221;-59
2022/11/28 04:56:21;;;;;;;10.25;6.28;;;6.30;99.90;;;;;;7379929;32;20170;-59
2022/11/28 05:00:25;;;;;;;10.48;6.05;;;6.30;99.90;;;;;;7378687;32;20128;-59
2022/11/28 05:04:26;;;;;;;11.50;6.07;;;6.40;99.90;;;;;;7381849;32;20123;-59
2022/11/28 05:08:28;;;;;;;9.35;6.72;;;6.40;99.90;;;;;;7380329;32;20103;-59
2022/11/28 05:12:30;;;;;;;10.27;6.87;;;6.30;99.90;;;;;;7378666;32;20126;-59
2022/11/28 05:16:31;;;;;;;11.02;6.62;;;6.30;99.90;;;;;;7381030;32;20129;-59
2022/11/28 05:20:35;;;;;;;9.95;6.45;;;6.30;99.90;;;;;;7378367;32;20107;-59
2022/11/28 05:24:37;;;;;;;9.02;7.00;;;6.20;99.90;;;;;;7378231;32;20213;-59
2022/11/28 05:28:38;;;;;;;12.00;7.70;;;6.20;99.90;;;;;;7379489;32;20130;-59
2022/11/28 05:32:40;;;;;;;10.82;7.03;;;6.20;99.90;;;;;;7375793;32;20223;-59
2022/11/28 05:36:42;;;;;;;11.05;6.90;;;6.20;99.90;;;;;;7368082;32;20142;-58
2022/11/28 05:40:43;;;;;;;12.07;7.50;;;6.20;99.90;;;;;;7379597;32;20154;-59
2022/11/28 05:44:46;;;;;;;9.90;6.90;;;6.20;99.90;;;;;;7376002;32;20261;-59
2022/11/28 05:48:48;;;;;;;10.90;7.30;;;6.20;99.90;;;;;;7370475;32;20149;-59
2022/11/28 05:52:50;;;;;;;14.40;8.52;;;6.20;99.90;;;;;;7373207;32;20138;-58
2022/11/28 05:56:51;;;;;;;10.40;7.05;;;6.20;99.90;;;;;;7371706;32;20133;-59
2022/11/28 06:00:53;;;;;;;13.00;7.87;;;6.20;99.90;;;;;;7373459;32;20106;-59
2022/11/28 06:04:54;;;;;;;9.02;6.97;;;6.30;99.90;;;;;;7373045;32;21370;-58
2022/11/28 06:08:57;;;;;;;13.62;7.37;;;6.20;99.90;;;;;;7377264;32;20795;-59
2022/11/28 06:12:58;;;;;;;9.88;6.47;;;6.20;99.90;;;;;;7373145;32;20197;-59
2022/11/28 06:17:00;;;;;;;13.20;8.13;;;6.10;99.90;;;;;;7377793;32;20111;-59
2022/11/28 06:21:03;;;;;;;11.63;7.53;;;6.10;99.90;;;;;;7373652;32;20107;-59
2022/11/28 06:25:05;;;;;;;9.82;7.22;;;6.10;99.90;;;;;;7367741;32;20201;-59
2022/11/28 06:29:07;;;;;;;8.80;6.40;;;6.20;99.90;;;;;;7376700;32;20130;-59
2022/11/28 06:33:09;;;;;;;11.27;6.90;;;6.20;99.90;;;;;;7370690;32;20551;-59
2022/11/28 06:37:10;;;;;;;10.35;7.25;;;6.20;99.90;;;;;;7376376;32;20116;-60
2022/11/28 06:41:15;;;;;;;10.40;7.45;;;6.10;99.90;;;;;;7368437;32;20204;-60
2022/11/28 06:45:16;;;;;;;10.25;7.35;;;6.00;99.90;;;;;;7380330;32;20121;-59
2022/11/28 06:49:18;;;;;;;9.45;6.70;;;5.90;99.90;;;;;;7372246;32;20714;-59
2022/11/28 06:53:20;;;;;;;8.63;7.35;;;6.00;99.90;;;;;;7368768;32;20457;-59
2022/11/28 06:57:21;;;;;;;13.13;7.43;;;6.00;99.90;;;;;;7375031;32;20133;-58
2022/11/28 07:01:25;;;;;;;10.57;7.22;;;6.10;99.90;;;;;;7369404;32;20638;-58
2022/11/28 07:05:29;;;;;;;10.88;7.28;;;6.00;99.90;;;;;;7374701;32;20118;-59
2022/11/28 07:09:31;;;;;;;13.50;7.85;;;6.10;99.90;;;;;;7375017;32;20133;-59
2022/11/28 07:13:33;;;;;;;10.77;6.47;;;6.10;99.90;;;;;;7378081;32;20139;-60
2022/11/28 07:17:34;;;;;;;12.68;6.90;;;6.20;99.90;;;;;;7370592;32;20149;-59
2022/11/28 07:21:36;;;;;;;11.77;7.45;;;6.20;99.90;;;;;;7371565;32;20125;-60
2022/11/28 07:25:38;;;;;;;9.73;7.55;;;6.20;99.90;;;;;;7385059;32;20145;-60
2022/11/28 07:29:39;;;;;;;11.25;6.82;;;6.30;99.90;;;;;;7378023;32;20166;-61
2022/11/28 07:33:44;;;;;;;11.38;7.35;;;6.40;99.90;;;;;;7382247;32;20189;-60
2022/11/28 07:37:46;;;;;;;10.20;7.53;;;6.30;99.90;;;;;;7376818;32;20213;-60
2022/11/28 07:41:48;;;;;;;10.18;6.87;;;6.30;99.90;;;;;;7384166;32;20720;-60
2022/11/28 07:45:50;;;;;;;9.50;7.07;;;6.40;99.90;;;;;;7368784;32;20554;-61
2022/11/28 07:50:02;;;;;;;9.50;6.78;;;6.40;99.90;;;;;;7369728;32;20645;-60
2022/11/28 07:54:04;;;;;;;11.43;7.18;;;6.40;99.90;;;;;;7372792;32;20128;-60
2022/11/28 07:58:06;;;;;;;10.52;6.80;;;6.40;99.90;;;;;;7368357;32;20206;-60
2022/11/28 08:02:09;;;;;;;10.25;6.93;;;6.40;99.90;;;;;;7369028;32;20777;-60
2022/11/28 08:06:12;;;;;;;8.40;6.82;;;6.40;99.90;;;;;;7363745;32;20112;-61
2022/11/28 08:10:14;;;;;;;10.52;7.07;;;6.40;99.90;;;;;;7364568;32;20131;-61
2022/11/28 08:14:15;;;;;;;11.68;6.97;;;6.40;99.90;;;;;;7372814;32;20820;-61
2022/11/28 08:18:17;;;;;;;10.20;6.50;;;6.50;99.90;;;;;;7377355;32;20298;-60
2022/11/28 08:22:19;;;;;;;10.63;7.00;;;6.50;99.90;;;;;;7374802;32;20474;-60
2022/11/28 08:26:23;;;;;;;10.95;6.47;;;6.50;99.90;;;;;;7367827;32;20153;-59
2022/11/28 08:30:30;;;;;;;10.30;7.07;;;6.60;99.90;;;;;;7379166;32;20153;-59
2022/11/28 08:34:32;;;;;;;9.77;6.93;;;6.60;99.90;;;;;;7376742;32;20205;-59
2022/11/28 08:38:35;;;;;;;9.20;6.30;;;6.60;99.90;;;;;;7370851;32;20486;-58
2022/11/28 08:42:37;;;;;;;11.38;6.22;;;6.70;99.90;;;;;;7371377;32;20226;-58
2022/11/28 08:46:39;;;;;;;10.15;6.75;;;6.70;99.90;;;;;;7372913;32;20129;-59
2022/11/28 08:50:46;;;;;;;10.70;7.12;;;6.80;99.90;;;;;;7376594;32;20126;-59
2022/11/28 08:54:48;;;;;;;9.98;6.22;;;6.80;99.90;;;;;;7383985;32;20107;-59
2022/11/28 08:58:50;;;;;;;10.85;6.37;;;6.80;99.90;;;;;;7378291;32;20119;-58
2022/11/28 09:02:52;;;;;;;9.77;6.30;;;6.90;99.90;;;;;;7374594;32;20107;-59
2022/11/28 09:06:54;;;;;;;8.77;6.30;;;6.90;99.90;;;;;;7378455;32;20111;-59
2022/11/28 09:10:55;;;;;;;10.10;6.72;;;6.90;99.90;;;;;;7373243;32;20099;-59
2022/11/28 09:14:57;;;;;;;9.63;7.00;;;6.90;99.90;;;;;;7374908;32;20168;-58
2022/11/28 09:18:59;;;;;;;8.73;6.93;;;6.90;99.90;;;;;;7381179;32;20110;-59
2022/11/28 09:23:01;;;;;;;8.80;6.22;;;6.90;99.90;;;;;;7375123;32;20118;-59
2022/11/28 09:27:02;;;;;;;11.10;7.50;;;6.90;99.90;;;;;;7379063;32;20523;-59
2022/11/28 09:31:05;;;;;;;8.52;6.32;;;6.90;99.90;;;;;;7367342;32;20140;-59
2022/11/28 09:35:07;;;;;;;10.73;6.85;;;7.00;99.90;;;;;;7378642;32;20153;-60
2022/11/28 09:39:09;;;;;;;8.35;6.78;;;6.90;99.90;;;;;;7374579;32;20479;-60
2022/11/28 09:43:17;;;;;;;9.70;6.10;;;6.90;99.90;;;;;;7367219;32;20145;-60
2022/11/28 09:47:27;;;;;;;10.43;6.95;;;7.00;99.90;;;;;;7382919;32;20123;-61
2022/11/28 09:52:13;;;;;;;14.02;7.95;;;7.00;99.90;;;;;;7380142;32;20121;-59
2022/11/28 09:56:20;;;;;;;9.73;7.05;;;6.90;99.90;;;;;;7378058;32;20107;-59
2022/11/28 10:00:55;;;;;;;9.93;6.95;;;7.00;99.90;;;;;;7372851;32;20304;-59
2022/11/28 10:05:00;;;;;;;9.27;6.78;;;6.90;99.90;;;;;;7374782;32;20236;-60
2022/11/28 10:09:20;;;;;;;10.20;6.82;;;6.90;99.90;;;;;;7381108;32;20157;-59
2022/11/28 10:13:29;;;;;;;9.18;7.32;;;7.10;99.90;;;;;;7375053;32;20103;-59
2022/11/28 10:18:06;;;;;;;9.90;7.60;;;7.00;99.90;;;;;;7376589;32;20511;-60
2022/11/28 10:22:17;;;;;;;11.60;8.02;;;7.00;99.90;;;;;;7379003;32;20499;-59
2022/11/28 10:26:28;;;;;;;10.77;7.82;;;7.00;99.90;;;;;;7374044;32;20107;-59
2022/11/28 10:30:35;;;;;;;10.05;7.20;;;7.20;99.90;;;;;;7379525;32;20091;-59
2022/11/28 10:34:59;;;;;;;;;;;7.10;99.90;;;;;;7372382;32;20268;-59
2022/11/28 10:39:09;;;;;;;9.40;7.10;;;7.10;99.90;;;;;;7380915;32;20481;-59
2022/11/28 10:43:26;;;;;;;15.23;8.13;;;7.10;99.90;;;;;;7379757;32;20129;-59
2022/11/28 10:47:39;;;;;;;11.12;7.57;;;7.20;99.90;;;;;;7377730;32;20106;-58
2022/11/28 10:51:55;;;;;;;11.75;7.80;;;7.40;99.90;;;;;;7372658;32;20182;-59
2022/11/28 10:56:14;;;;;;;9.70;7.25;;;7.30;99.90;;;;;;7384321;32;20284;-59
2022/11/28 11:00:17;;;;;;;14.15;7.80;;;7.30;99.90;;;;;;7385181;32;20121;-59
2022/11/28 11:04:25;;;;;;;10.85;7.57;;;7.40;99.90;;;;;;7372149;32;20185;-59
2022/11/28 11:08:32;;;;;;;13.52;8.43;;;7.30;99.90;;;;;;7381574;32;20198;-59
2022/11/28 11:12:34;;;;;;;12.63;8.13;;;7.40;99.90;;;;;;7381830;32;20144;-60
2022/11/28 11:16:54;;;;;;;10.52;8.10;;;7.40;99.90;;;;;;7356409;32;20143;-59
2022/11/28 11:21:14;;;;;;;13.15;7.62;;;7.30;99.90;;;;;;7382496;32;20149;-59
2022/11/28 11:25:18;;;;;;;10.93;8.00;;;7.30;99.90;;;;;;7371796;32;20134;-58
2022/11/28 11:29:36;;;;;;;11.73;8.32;;;7.30;99.90;;;;;;7365066;32;20448;-58
2022/11/28 11:33:37;;;;;;;12.52;8.15;;;7.30;99.90;;;;;;7380731;32;20122;-58
2022/11/28 11:37:39;;;;;;;10.10;7.85;;;7.30;99.90;;;;;;7373987;32;20181;-59
2022/11/28 11:41:41;;;;;;;12.52;7.93;;;7.30;99.90;;;;;;7380711;32;20111;-59
2022/11/28 11:45:42;;;;;;;12.60;8.00;;;7.40;99.90;;;;;;7383712;32;20124;-59
2022/11/28 11:50:01;;;;;;;14.30;8.90;;;7.30;99.90;;;;;;7380739;32;20156;-59
2022/11/28 11:54:16;;;;;;;10.57;8.25;;;7.40;99.90;;;;;;7380372;32;20138;-59
2022/11/28 11:58:31;;;;;;;13.10;8.98;;;7.30;99.90;;;;;;7370484;32;20140;-59
2022/11/28 12:02:41;;;;;;;12.95;9.27;;;7.30;99.90;;;;;;7379948;32;20690;-59
2022/11/28 12:06:50;;;;;;;14.35;9.18;;;7.20;99.90;;;;;;7376123;32;20539;-59
2022/11/28 12:11:09;;;;;;;12.05;9.00;;;7.20;99.90;;;;;;7375515;32;20127;-58
2022/11/28 12:15:17;;;;;;;11.80;8.63;;;7.20;99.90;;;;;;7378510;32;20561;-58
2022/11/28 12:19:36;;;;;;;14.43;8.25;;;7.20;99.90;;;;;;7376520;32;20212;-59
2022/11/28 12:24:05;;;;;;;12.15;8.07;;;7.20;99.90;;;;;;7372880;32;20103;-59
2022/11/28 12:28:37;;;;;;;13.07;8.68;;;7.30;99.90;;;;;;7377896;32;20268;-59
2022/11/28 12:32:52;;;;;;;14.57;8.82;;;7.30;99.90;;;;;;7373452;32;20099;-59
2022/11/28 12:37:02;;;;;;;11.82;9.27;;;7.30;99.90;;;;;;7379133;32;20103;-59
2022/11/28 12:41:32;;;;;;;12.27;9.38;;;7.20;99.90;;;;;;7377795;32;20242;-60
2022/11/28 12:45:37;;;;;;;14.02;8.90;;;7.20;99.90;;;;;;7377177;32;20099;-59
2022/11/28 12:50:06;;;;;;;11.25;8.60;;;7.20;99.90;;;;;;7375629;32;20256;-59
2022/11/28 12:54:53;;;;;;;11.55;8.50;;;7.10;99.90;;;;;;7386273;32;20122;-59
2022/11/28 12:58:58;;;;;;;8.95;7.68;;;7.10;99.90;;;;;;7370259;32;20157;-59
2022/11/28 13:03:21;;;;;;;10.57;8.57;;;7.20;99.90;;;;;;7369377;32;20848;-60
2022/11/28 13:07:41;;;;;;;13.88;8.15;;;7.30;99.90;;;;;;7376309;32;20122;-59
2022/11/28 13:12:11;;;;;;;8.77;7.50;;;7.20;99.90;;;;;;7378267;32;20114;-59
2022/11/28 13:16:41;;;;;;;13.07;7.60;;;7.30;99.90;;;;;;7382371;32;20107;-59
2022/11/28 13:21:00;;;;;;;11.15;7.57;;;7.40;99.90;;;;;;7372813;32;20167;-59
2022/11/28 13:25:18;;;;;;;9.80;7.75;;;7.40;99.90;;;;;;7369370;32;20214;-60
2022/11/28 13:29:26;;;;;;;;;;;7.40;99.90;;;;;;7375660;32;20226;-61
2022/11/28 13:33:37;;;;;;;8.55;7.18;;;7.40;99.90;;;;;;7379458;32;20085;-59
2022/11/28 13:38:01;;;;;;;10.02;7.20;;;7.30;99.90;;;;;;7372427;32;20128;-60
2022/11/28 13:43:01;;;;;;;9.93;6.62;;;7.30;99.90;;;;;;7373020;32;20111;-59
2022/11/28 13:47:30;;;;;;;9.63;7.10;;;7.30;99.90;;;;;;7303776;32;20166;-61
2022/11/28 13:51:32;;;;;;;8.30;6.75;;;7.30;99.90;;;;;;7366764;32;20129;-59
2022/11/28 13:56:08;;;;;;;8.70;7.03;;;7.40;99.90;;;;;;7378151;32;20208;-59
2022/11/28 14:00:22;;;;;;;9.32;6.95;;;7.40;99.90;;;;;;7360050;32;20111;-59
2022/11/28 14:04:26;;;;;;;8.88;7.07;;;7.40;99.90;;;;;;7382812;32;20477;-59
2022/11/28 14:08:40;;;;;;;10.57;7.53;;;7.50;99.90;;;;;;7376615;32;20123;-59
2022/11/28 14:12:49;;;;;;;9.48;7.60;;;7.50;99.90;;;;;;7373225;32;20248;-60
2022/11/28 14:17:32;;;;;;;9.85;7.50;;;7.50;99.90;;;;;;7382414;32;20183;-61
2022/11/28 14:21:34;;;;;;;7.70;6.35;;;7.60;99.90;;;;;;7321437;32;20176;-60
2022/11/28 14:25:43;;;;;;;8.38;6.62;;;7.50;99.90;;;;;;7371204;32;20126;-60
2022/11/28 14:29:50;;;;;;;11.18;6.50;;;7.50;99.90;;;;;;7376260;32;20115;-57
2022/11/28 14:33:58;;;;;;;7.03;6.10;;;7.50;99.90;;;;;;7383547;32;20141;-58
2022/11/28 14:38:01;;;;;;;7.22;6.22;;;7.60;99.90;;;;;;7376443;32;20625;-56
2022/11/28 14:42:06;;;;;;;10.43;7.32;;;7.60;99.90;;;;;;7374278;32;20560;-56
2022/11/28 14:46:14;;;;;;;8.90;7.22;;;7.50;99.90;;;;;;7377775;32;20579;-59
2022/11/28 14:50:17;;;;;;;11.25;7.45;;;7.50;99.90;;;;;;7377351;32;20152;-60
2022/11/28 14:54:21;;;;;;;10.25;7.95;;;7.50;99.90;;;;;;7375137;32;20129;-60
2022/11/28 14:58:23;;;;;;;11.82;7.97;;;7.50;99.90;;;;;;7375069;32;20844;-60
2022/11/28 15:02:34;;;;;;;10.98;8.65;;;7.60;99.90;;;;;;7373266;32;20110;-61
2022/11/28 15:06:38;;;;;;;14.10;9.27;;;7.50;99.90;;;;;;7377058;32;20187;-60
2022/11/28 15:11:05;;;;;;;11.55;8.93;;;7.50;99.90;;;;;;7377953;32;20110;-61
2022/11/28 15:15:12;;;;;;;14.65;9.95;;;7.50;99.90;;;;;;7370820;32;20126;-61
2022/11/28 15:19:37;;;;;;;12.18;9.13;;;7.50;99.90;;;;;;7376126;32;20218;-61
2022/11/28 15:23:38;;;;;;;12.55;8.85;;;7.60;99.90;;;;;;7370764;32;20495;-61
2022/11/28 15:27:40;;;;;;;11.40;8.90;;;7.60;99.90;;;;;;7370522;32;20110;-60
2022/11/28 15:31:42;;;;;;;13.88;9.50;;;7.60;99.90;;;;;;7377903;32;20128;-61
2022/11/28 15:35:55;;;;;;;13.55;9.68;;;7.60;99.90;;;;;;7370162;32;20133;-60
2022/11/28 15:39:59;;;;;;;14.35;10.30;;;7.60;99.90;;;;;;7379072;32;20237;-60
2022/11/28 15:44:01;;;;;;;12.32;10.10;;;7.60;99.90;;;;;;7375635;32;20544;-59
2022/11/28 15:48:03;;;;;;;12.27;9.70;;;7.60;99.90;;;;;;7369751;32;20128;-59
2022/11/28 15:52:05;;;;;;;18.83;10.95;;;7.70;99.90;;;;;;7377972;32;20481;-59
2022/11/28 15:56:14;;;;;;;13.77;10.88;;;7.70;99.90;;;;;;7382431;32;20478;-59
2022/11/28 16:00:18;;;;;;;18.40;11.20;;;7.60;99.90;;;;;;7378662;32;20124;-59
2022/11/28 16:04:20;;;;;;;15.40;11.73;;;7.60;99.90;;;;;;7373433;32;20111;-60
2022/11/28 16:08:50;;;;;;;15.50;11.57;;;7.50;99.90;;;;;;7371508;32;20190;-61
2022/11/28 16:12:59;;;;;;;16.70;12.37;;;7.50;99.90;;;;;;7378263;32;20131;-59
2022/11/28 16:17:11;;;;;;;17.70;12.35;;;7.50;99.90;;;;;;7371036;32;20107;-59
2022/11/28 16:21:13;;;;;;;15.38;11.60;;;7.50;99.90;;;;;;7379868;32;20152;-59
2022/11/28 16:25:23;;;;;;;18.65;13.10;;;7.50;99.90;;;;;;7364777;32;20647;-59
2022/11/28 16:29:31;;;;;;;18.15;13.65;;;7.50;99.90;;;;;;7371854;32;20134;-60
2022/11/28 16:33:40;;;;;;;19.12;12.98;;;7.60;99.90;;;;;;7380911;32;20107;-59
2022/11/28 16:37:41;;;;;;;21.87;14.38;;;7.60;99.90;;;;;;7367991;32;20232;-59
2022/11/28 16:41:51;;;;;;;21.35;14.48;;;7.50;99.90;;;;;;7367066;32;20690;-60
2022/11/28 16:46:01;;;;;;;23.75;14.70;;;7.60;99.90;;;;;;7375289;32;20190;-60
2022/11/28 16:50:23;;;;;;;22.92;14.45;;;7.50;99.90;;;;;;7364471;32;20149;-59
2022/11/28 16:54:30;;;;;;;22.17;15.25;;;7.60;99.90;;;;;;7374965;32;20103;-59
2022/11/28 16:58:32;;;;;;;21.73;14.30;;;7.60;99.90;;;;;;7369659;32;20474;-60
2022/11/28 17:02:33;;;;;;;24.27;15.05;;;7.70;99.90;;;;;;7369073;32;20114;-59
2022/11/28 17:06:38;;;;;;;22.77;14.65;;;7.60;99.90;;;;;;7367069;32;20129;-60
2022/11/28 17:10:39;;;;;;;23.85;15.20;;;7.60;99.90;;;;;;7368598;32;20221;-59
2022/11/28 17:14:42;;;;;;;26.42;16.37;;;7.70;99.90;;;;;;7366727;32;20214;-59
2022/11/28 17:18:45;;;;;;;19.15;14.38;;;7.70;99.90;;;;;;7376289;32;20225;-59
2022/11/28 17:22:49;;;;;;;23.45;15.98;;;7.80;99.90;;;;;;7383017;32;20096;-59
2022/11/28 17:26:52;;;;;;;22.33;15.60;;;7.70;99.90;;;;;;7372280;32;20162;-58
2022/11/28 17:30:54;;;;;;;24.42;16.27;;;7.70;99.90;;;;;;7376961;32;20187;-58
2022/11/28 17:34:58;;;;;;;24.80;16.30;;;7.70;99.90;;;;;;7377811;32;20474;-58
2022/11/28 17:39:00;;;;;;;20.95;14.63;;;7.80;99.90;;;;;;7367885;32;20111;-59
2022/11/28 17:43:06;;;;;;;22.77;15.35;;;7.70;99.90;;;;;;7378949;32;20104;-58
2022/11/28 17:47:08;;;;;;;23.35;14.98;;;7.80;99.90;;;;;;7377100;32;20614;-59
2022/11/28 17:51:10;;;;;;;23.20;15.50;;;7.80;99.90;;;;;;7373626;32;20111;-59
2022/11/28 17:55:11;;;;;;;23.67;16.20;;;7.80;99.90;;;;;;7375239;32;20103;-58
2022/11/28 17:59:15;;;;;;;22.30;15.95;;;7.90;99.90;;;;;;7372256;32;20107;-58
2022/11/28 18:03:17;;;;;;;26.90;16.35;;;8.00;99.90;;;;;;7369418;32;20151;-58
2022/11/28 18:07:19;;;;;;;25.90;17.02;;;8.00;99.90;;;;;;7381581;32;20136;-58
2022/11/28 18:11:20;;;;;;;25.73;15.88;;;8.10;99.90;;;;;;7373488;32;20112;-59
2022/11/28 18:15:22;;;;;;;20.35;16.20;;;8.00;99.90;;;;;;7368294;32;21882;-59
2022/11/28 18:19:24;;;;;;;28.62;17.17;;;8.10;99.90;;;;;;7369279;32;20112;-59
2022/11/28 18:23:25;;;;;;;24.55;16.55;;;8.10;99.90;;;;;;7379388;32;20107;-59
2022/11/28 18:27:28;;;;;;;27.80;17.30;;;8.10;99.90;;;;;;7375008;32;20882;-58
2022/11/28 18:31:29;;;;;;;26.60;17.20;;;8.10;99.90;;;;;;7374217;32;20098;-59
2022/11/28 18:35:31;;;;;;;22.83;16.92;;;8.10;99.90;;;;;;7375779;32;20529;-59
2022/11/28 18:39:33;;;;;;;29.52;18.15;;;8.10;99.90;;;;;;7377853;32;20145;-58
2022/11/28 18:43:36;;;;;;;27.55;18.10;;;8.00;99.90;;;;;;7378606;32;20110;-58
2022/11/28 18:47:38;;;;;;;27.20;17.65;;;8.10;99.90;;;;;;7378272;32;20197;-59
2022/11/28 18:51:39;;;;;;;32.38;18.35;;;8.10;99.90;;;;;;7371679;32;20490;-59
2022/11/28 18:55:41;;;;;;;31.55;19.25;;;8.20;99.90;;;;;;7371402;32;20582;-57
2022/11/28 18:59:43;;;;;;;27.85;17.83;;;8.20;99.90;;;;;;7364729;32;20132;-61
2022/11/28 19:04:08;;;;;;;26.58;18.02;;;8.10;99.90;;;;;;7380785;32;20118;-58
2022/11/28 19:08:09;;;;;;;26.15;17.77;;;8.20;99.90;;;;;;7369567;32;20134;-60
2022/11/28 19:12:11;;;;;;;22.75;16.90;;;8.20;99.90;;;;;;7373968;32;20205;-59
2022/11/28 19:16:16;;;;;;;20.85;15.40;;;8.20;99.90;;;;;;7365594;32;20526;-59
2022/11/28 19:20:18;;;;;;;21.85;15.68;;;8.30;99.90;;;;;;7364897;32;20220;-59
2022/11/28 19:24:19;;;;;;;25.73;16.70;;;8.30;99.90;;;;;;7373837;32;20130;-58
2022/11/28 19:28:21;;;;;;;23.15;15.80;;;8.30;99.90;;;;;;7373430;32;20129;-60
2022/11/28 19:32:23;;;;;;;23.75;17.30;;;8.20;99.90;;;;;;7379473;32;20606;-60
2022/11/28 19:36:26;;;;;;;26.50;16.48;;;8.20;99.90;;;;;;7371845;32;20610;-59
2022/11/28 19:40:27;;;;;;;26.25;17.23;;;8.20;99.90;;;;;;7373495;32;20166;-59
2022/11/28 19:44:29;;;;;;;25.62;16.62;;;8.20;99.90;;;;;;7380018;32;20837;-60
2022/11/28 19:48:34;;;;;;;26.02;16.90;;;8.20;99.90;;;;;;7376208;32;20107;-60
2022/11/28 19:52:35;;;;;;;28.77;16.05;;;8.30;99.90;;;;;;7374944;32;20107;-60
2022/11/28 19:56:37;;;;;;;26.98;16.90;;;8.30;99.90;;;;;;7371762;32;20633;-59
2022/11/28 20:00:40;;;;;;;28.30;16.80;;;8.30;99.90;;;;;;7361520;32;20138;-60
2022/11/28 20:04:42;;;;;;;21.83;15.88;;;8.30;99.90;;;;;;7375393;32;20169;-59
2022/11/28 20:08:45;;;;;;;23.00;16.10;;;8.40;99.90;;;;;;7375767;32;20153;-59
2022/11/28 20:12:47;;;;;;;24.37;16.65;;;8.40;99.90;;;;;;7368890;32;20549;-59
2022/11/28 20:16:49;;;;;;;31.23;16.60;;;8.30;99.90;;;;;;7377200;32;20121;-59
2022/11/28 20:20:50;;;;;;;24.08;16.25;;;8.40;99.90;;;;;;7369788;32;20173;-60
2022/11/28 20:24:52;;;;;;;24.63;16.55;;;8.30;99.90;;;;;;7370667;32;20126;-59
2022/11/28 20:28:54;;;;;;;27.65;17.30;;;8.30;99.90;;;;;;7374812;32;20204;-60
2022/11/28 20:32:56;;;;;;;25.15;16.85;;;8.30;99.90;;;;;;7372436;32;20121;-60
2022/11/28 20:36:58;;;;;;;28.87;19.80;;;8.30;99.90;;;;;;7374241;32;20632;-59
2022/11/28 20:41:01;;;;;;;25.77;16.92;;;8.30;99.90;;;;;;7367323;32;20107;-60
2022/11/28 20:45:04;;;;;;;29.25;16.33;;;8.30;99.90;;;;;;7377346;32;20125;-59
2022/11/28 20:49:06;;;;;;;26.65;16.80;;;8.30;99.90;;;;;;7378009;32;20103;-59
2022/11/28 20:53:07;;;;;;;29.15;16.70;;;8.30;99.90;;;;;;7377277;32;20198;-59
2022/11/28 20:57:09;;;;;;;30.08;17.17;;;8.30;99.90;;;;;;7382649;32;20507;-60
2022/11/28 21:01:24;;;;;;;26.55;16.20;;;8.40;99.90;;;;;;7373966;32;20199;-59
2022/11/28 21:05:26;;;;;;;24.55;16.50;;;8.30;99.90;;;;;;7379024;32;20111;-59
2022/11/28 21:09:28;;;;;;;24.35;15.60;;;8.20;99.90;;;;;;7376548;32;20221;-59
2022/11/28 21:13:30;;;;;;;30.30;17.30;;;8.20;99.90;;;;;;7376085;32;20103;-59
2022/11/28 21:17:32;;;;;;;29.30;16.52;;;8.30;99.90;;;;;;7378294;32;20478;-59
2022/11/28 21:21:36;;;;;;;33.38;17.17;;;8.30;99.90;;;;;;7378859;32;20110;-59
2022/11/28 21:25:39;;;;;;;28.62;17.00;;;8.20;99.90;;;;;;7372156;32;20643;-59
2022/11/28 21:29:41;;;;;;;32.55;17.15;;;8.30;99.90;;;;;;7371264;32;20865;-60